Argyle, Florida
Current Conditions -  °F | °C
As of 2:15 AM on Sunday 23 Nov 2014 (Local Time) from K54J Reporting Station
Overcast Overcast  
Wind Chill: 17°   Ceiling: 300
Heat Index: 17°   Visibility: 10mi
Dew Point: 17°   Wind: 7mph
Humidity: 99%   Direction: 100°E
Pressure: 29.92"   Gusts: NA
Location:  30.72°N, 86.04°W
Report Text: K54J 230815Z AUTO 10006KT 10SM OVC003 17/17 A2992 RMK AO2 T01660165
Loading
Personal Weather Stations






























Interactive Weather Map New forecast layout! Learn more

10-Day Weather Forecast

Advertisements
Track Severe Weather on mobile